Yangon, Burma
Current Conditions -  °F | °C
As of 3:30 PM on Friday 19 Dec 2014 (Local Time) from VYYY Reporting Station
Few Clouds Few Clouds  
Wind Chill: 31°   Ceiling: Unl
Heat Index: 38°   Visibility: 6mi
Dew Point: 25°   Wind: 7mph
Humidity: 70%   Direction: 30°NNE
Pressure: 29.91"   Gusts: NA
Location:  16.79°N, 96.15°E
Report Text: VYYY 190930Z 03006KT 9000 FEW022 31/25 Q1013
Loading
Personal Weather Stations






























Interactive Weather Map New forecast layout! Learn more

10-Day Weather Forecast

Advertisements
Track Severe Weather on mobile